• Join FlightAware (Why Join?)
  • Login
  • US Flag 
11:19PM EDT


 

Airport Tracker/Info


-or-


 

Live Flight TrackerFlight Track Log ✈ SWA542 ✈ 21-Apr-2013 ✈ KLAS - KSEA

Flight Track Log - Related Links

Times and Time Zones

All times are in EDT time to prevent confusion due to time zone crossing. See the SWA542 flight status page for this flight to view local times or setup timezone preferences in your user account.

Time Position Orientation Groundspeed Altitude Reporting Facility
EDT Latitude Longitude Course Direction KTS MPH feet Rate Location/Type
06:31PM 36.0753 -115.1739 245° Southwest 166 191 3,500  Level Los Angeles Center
06:32PM 36.0381 -115.2711 245° Southwest 263 303 5,700 1,740 Climbing Los Angeles Center
06:33PM 36.0097 -115.2817 197° South 254 292 7,200 3,240 Climbing Los Angeles Center
06:33PM 35.9750 -115.2997 203° Southwest 275 316 8,700 3,600 Climbing Los Angeles Center
06:34PM 35.9425 -115.4086 250° West 288 331 12,800 2,880 Climbing Los Angeles Center
06:35PM 35.9383 -115.4592 264° West 291 335 13,700 1,980 Climbing Los Angeles Center
06:36PM 35.9286 -115.5775 264° West 344 396 15,900 2,460 Climbing Los Angeles Center
06:37PM 35.9167 -115.7133 264° West 371 427 18,900 2,700 Climbing Los Angeles Center
06:38PM 35.9067 -115.8433 265° West 380 437 21,600 2,400 Climbing Los Angeles Center
06:39PM 35.9131 -115.9864 273° West 392 451 23,900 1,980 Climbing Los Angeles Center
06:40PM 35.9850 -116.0717 316° Northwest 397 457 25,800 1,860 Climbing Los Angeles Center
06:41PM 36.0697 -116.1714 316° Northwest 409 471 27,800 1,980 Climbing Los Angeles Center
06:42PM 36.1703 -116.2858 317° Northwest 415 478 30,000 1,980 Climbing Los Angeles Center
06:43PM 36.2550 -116.3836 317° Northwest 417 480 32,000 1,800 Climbing Los Angeles Center
06:44PM 36.3383 -116.4811 317° Northwest 414 476 33,800 1,560 Climbing Los Angeles Center
06:45PM 36.4206 -116.5772 317° Northwest 410 472 35,300 1,320 Climbing Los Angeles Center
06:46PM 36.5031 -116.6722 317° Northwest 408 470 36,600 1,260 Climbing Los Angeles Center
06:47PM 36.5908 -116.7697 318° Northwest 406 467 38,000 660 Climbing Los Angeles Center
06:48PM 36.6886 -116.8394 330° Northwest 404 465 38,000  Level Los Angeles Center
06:49PM 36.8036 -116.9267 329° Northwest 403 464 38,000  Level Los Angeles Center
06:50PM 36.8981 -117.0014 328° Northwest 401 461 38,000  Level Los Angeles Center
06:51PM 36.9933 -117.0722 329° Northwest 399 459 38,000  Level Los Angeles Center
06:52PM 37.0875 -117.1478 327° Northwest 400 460 38,000  Level Oakland Center
06:53PM 37.1822 -117.2214 328° Northwest 399 459 38,000  Level Oakland Center
06:54PM 37.2853 -117.2742 338° Northwest 398 458 38,000  Level Oakland Center
06:55PM 37.3861 -117.3297 336° Northwest 394 453 38,000  Level Oakland Center
06:56PM 37.5092 -117.3964 337° Northwest 399 459 38,000  Level Oakland Center
06:58PM 37.6128 -117.4525 337° Northwest 402 463 38,000  Level Oakland Center
06:59PM 37.7167 -117.5103 336° Northwest 405 466 38,000  Level Oakland Center
07:00PM 37.8189 -117.5669 336° Northwest 401 461 38,000  Level Oakland Center
07:01PM 37.9225 -117.6239 337° Northwest 402 463 38,000  Level Oakland Center
07:02PM 38.0253 -117.6819 336° Northwest 400 460 38,000  Level Oakland Center
07:03PM 38.1278 -117.7389 336° Northwest 398 458 38,000  Level Oakland Center
07:04PM 38.2294 -117.7964 336° Northwest 396 456 38,000  Level Oakland Center
07:05PM 38.3922 -117.8869 336° Northwest 397 457 38,000  Level Salt Lake Center
07:06PM 38.4336 -117.9108 336° Northwest 397 457 38,000  Level Oakland Center
07:07PM 38.5356 -117.9692 336° Northwest 399 459 38,000  Level Oakland Center
07:08PM 38.6522 -118.0336 337° Northwest 400 460 38,000  Level Oakland Center
07:09PM 38.7533 -118.0928 335° Northwest 399 459 38,000  Level Oakland Center
07:10PM 38.8542 -118.1500 336° Northwest 398 458 38,000  Level Oakland Center
07:11PM 38.9544 -118.2067 336° Northwest 395 455 38,000  Level Oakland Center
07:12PM 39.0522 -118.2644 335° Northwest 389 448 38,000 -480 Level Oakland Center
07:13PM 39.1503 -118.3192 337° Northwest 385 443 37,100 -960 Descending Oakland Center
07:14PM 39.2467 -118.3758 336° Northwest 383 441 36,100 -540 Descending Oakland Center
07:15PM 39.3528 -118.4369 336° Northwest 384 442 36,000 -60 Descending Oakland Center
07:16PM 39.4514 -118.4944 336° Northwest 387 445 36,000  Level Oakland Center
07:17PM 39.5564 -118.5572 335° Northwest 389 448 36,000  Level Oakland Center
07:18PM 39.6539 -118.6147 336° Northwest 389 448 36,000  Level Oakland Center
07:19PM 39.7528 -118.6722 336° Northwest 392 451 36,000  Level Oakland Center
07:20PM 39.8511 -118.7300 336° Northwest 390 449 36,000  Level Oakland Center
07:21PM 39.9492 -118.7894 335° Northwest 389 448 36,000  Level Oakland Center
07:22PM 40.0675 -118.8600 335° Northwest 390 449 36,000  Level Oakland Center
07:23PM 40.1639 -118.9178 335° Northwest 383 441 36,000  Level Oakland Center
07:24PM 40.2611 -118.9753 336° Northwest 384 442 36,000  Level Oakland Center
07:25PM 40.3558 -119.0325 335° Northwest 378 435 36,000  Level Oakland Center
07:26PM 40.4506 -119.0903 335° Northwest 377 434 36,000 -540 Level Oakland Center
07:27PM 40.5444 -119.1458 336° Northwest 371 427 35,000 -840 Descending Oakland Center
07:29PM 40.6747 -119.2267 335° Northwest 371 427 34,000 -420 Descending Oakland Center
07:30PM 40.7681 -119.2833 335° Northwest 371 427 34,000  Level Oakland Center
07:31PM 40.8681 -119.3439 335° Northwest 370 426 34,000  Level Oakland Center
07:32PM 40.9731 -119.4075 335° Northwest 370 426 34,000  Level Oakland Center
07:33PM 41.0642 -119.4628 335° Northwest 374 430 34,000  Level Oakland Center
07:34PM 41.1578 -119.5233 334° Northwest 371 427 34,000  Level Oakland Center
07:34PM 41.1953 -119.5456 336° Northwest 370 426 34,000  Level Seattle Center
07:35PM 41.2908 -119.6028 336° Northwest 375 432 34,000  Level Seattle Center
07:36PM 41.3453 -119.6389 334° Northwest 370 426 34,000  Level Oakland Center
07:36PM 41.3828 -119.6617 336° Northwest 370 426 34,000  Level Seattle Center
07:37PM 41.5000 -119.7286 337° Northwest 380 437 34,000  Level Seattle Center
07:38PM 41.5892 -119.7892 333° Northwest 368 423 34,000  Level Seattle Center
07:39PM 41.6817 -119.8472 335° Northwest 365 420 34,000  Level Seattle Center
07:40PM 41.7361 -119.8833 334° Northwest 369 425 34,000  Level Oakland Center
07:40PM 41.7753 -119.9053 337° Northwest 368 423 34,000  Level Seattle Center
07:41PM 41.8675 -119.9639 335° Northwest 369 425 34,000  Level Seattle Center
07:42PM 41.9578 -120.0203 335° Northwest 364 419 34,000  Level Seattle Center
07:43PM 42.0511 -120.0781 335° Northwest 368 423 34,000  Level Seattle Center
07:44PM 42.1419 -120.1372 334° Northwest 364 419 34,000  Level Seattle Center
07:45PM 42.2328 -120.1953 335° Northwest 363 418 34,000  Level Seattle Center
07:46PM 42.3253 -120.2531 335° Northwest 366 421 34,000  Level Seattle Center
07:47PM 42.4158 -120.3136 334° Northwest 365 420 34,000  Level Seattle Center
07:48PM 42.5064 -120.3700 335° Northwest 361 415 34,000  Level Seattle Center
07:49PM 42.5961 -120.4272 335° Northwest 358 412 34,000  Level Seattle Center
07:50PM 42.6853 -120.4850 335° Northwest 357 411 34,000  Level Seattle Center
07:51PM 42.7931 -120.5572 334° Northwest 359 413 34,000  Level Seattle Center
07:52PM 42.8831 -120.6164 334° Northwest 359 413 34,000  Level Seattle Center
07:53PM 42.9739 -120.6744 335° Northwest 360 414 34,000  Level Seattle Center
07:54PM 43.0633 -120.7347 334° Northwest 360 414 34,000  Level Seattle Center
07:56PM 43.1517 -120.7903 335° Northwest 351 404 34,000  Level Seattle Center
07:57PM 43.2403 -120.8489 334° Northwest 354 407 34,000  Level Seattle Center
07:58PM 43.3275 -120.9056 335° Northwest 350 403 34,000  Level Seattle Center
07:59PM 43.4147 -120.9650 334° Northwest 350 403 34,000  Level Seattle Center
08:00PM 43.5019 -121.0228 334° Northwest 349 402 34,000  Level Seattle Center
08:01PM 43.5989 -121.0867 334° Northwest 349 402 34,000  Level Seattle Center
08:02PM 43.6750 -121.1358 335° Northwest 344 396 34,000  Level Seattle Center
08:03PM 43.7647 -121.2003 333° Northwest 355 409 34,000  Level Seattle Center
08:04PM 43.8636 -121.2672 334° Northwest 358 412 34,000  Level Seattle Center
08:05PM 43.9497 -121.3242 335° Northwest 347 399 34,000  Level Seattle Center
08:06PM 44.0353 -121.3836 333° Northwest 346 398 34,000  Level Seattle Center
08:07PM 44.1200 -121.4428 333° Northwest 344 396 34,000  Level Seattle Center
08:08PM 44.2064 -121.5000 335° Northwest 345 397 34,000  Level Seattle Center
08:09PM 44.2922 -121.5594 334° Northwest 344 396 34,000  Level Seattle Center
08:10PM 44.3789 -121.6186 334° Northwest 347 399 34,000  Level Seattle Center
08:11PM 44.4656 -121.6781 334° Northwest 347 399 34,000  Level Seattle Center
08:12PM 44.5525 -121.7389 334° Northwest 348 400 34,000  Level Seattle Center
08:13PM 44.6389 -121.7989 334° Northwest 348 400 34,000  Level Seattle Center
08:14PM 44.7247 -121.8586 334° Northwest 345 397 34,000  Level Seattle Center
08:15PM 44.8189 -121.9244 334° Northwest 335 386 34,000  Level Seattle Center
08:16PM 44.9008 -121.9858 332° Northwest 334 384 34,000  Level Seattle Center
08:17PM 44.9853 -122.0450 334° Northwest 339 390 34,000  Level Seattle Center
08:18PM 45.0672 -122.1022 334° Northwest 333 383 34,000  Level Seattle Center
08:19PM 45.1486 -122.1617 333° Northwest 331 381 34,000  Level Seattle Center
08:20PM 45.2314 -122.2192 334° Northwest 332 382 34,000  Level Seattle Center
08:21PM 45.3114 -122.2778 333° Northwest 329 379 34,000  Level Seattle Center
08:22PM 45.3936 -122.3364 333° Northwest 331 381 34,000  Level Seattle Center
08:23PM 45.4747 -122.3944 333° Northwest 330 380 34,000  Level Seattle Center
08:24PM 45.5583 -122.4547 333° Northwest 335 386 34,000  Level Seattle Center
08:25PM 45.6431 -122.5156 333° Northwest 336 387 34,000  Level Seattle Center
08:26PM 45.7231 -122.5733 333° Northwest 333 383 34,000  Level Seattle Center
08:27PM 45.8342 -122.6128 346° North 347 399 34,000  Level Seattle Center
08:28PM 45.9264 -122.6353 350° North 340 391 34,000 -240 Level Seattle Center
08:29PM 46.0203 -122.6625 349° North 344 396 33,600 -1,440 Descending Seattle Center
08:30PM 46.1089 -122.6842 350° North 327 376 31,200 -2,340 Descending Seattle Center
08:31PM 46.2008 -122.6942 356° North 332 382 28,900 -2,160 Descending Seattle Center
08:32PM 46.2847 -122.7053 355° North 324 373 26,900 -2,040 Descending Seattle Center
08:33PM 46.3733 -122.7175 355° North 324 373 24,800 -2,160 Descending Seattle Center
08:34PM 46.4664 -122.7319 354° North 336 387 22,600 -2,460 Descending Seattle Center
08:35PM 46.5758 -122.7447 355° North 333 383 19,900 -2,340 Descending Seattle Center
08:36PM 46.6617 -122.7569 354° North 317 365 17,900 -1,860 Descending Seattle Center
08:36PM 46.6964 -122.7600 357° North 306 352 17,300 -1,800 Descending Seattle Center
08:37PM 46.7450 -122.7658 355° North 303 349 16,100 -1,500 Descending Seattle Center
08:38PM 46.8272 -122.7767 355° North 301 346 14,900 -1,320 Descending Seattle Center
08:39PM 46.9103 -122.7875 355° North 302 348 13,500 -1,500 Descending Seattle Center
08:39PM 46.9444 -122.7758 13° North 311 358 12,900 -1,200 Descending Seattle Center
08:40PM 46.9722 -122.7125 57° Northeast 323 372 12,300 -1,020 Descending Seattle Center
08:40PM 46.9861 -122.6692 65° Northeast 331 381 12,000 -1,320 Descending Seattle Center
08:41PM 47.0100 -122.5975 64° Northeast 317 365 11,000 -1,680 Descending Seattle Center
08:41PM 47.0267 -122.5564 59° Northeast 312 359 10,300 -1,380 Descending Seattle Center
08:42PM 47.0514 -122.4917 61° Northeast 304 350 9,600 -1,500 Descending Seattle Center
08:42PM 47.0703 -122.4483 57° Northeast 290 334 8,800 -1,920 Descending Seattle Center
08:43PM 47.0908 -122.3942 61° Northeast 287 330 7,700 -2,100 Descending Seattle Center
08:43PM 47.1133 -122.3564 49° Northeast 277 319 6,700 -2,100 Descending Seattle Center
08:44PM 47.1614 -122.3161 30° Northeast 273 314 5,600 -1,380 Descending Seattle Center
08:44PM 47.1803 -122.3133 North 255 293 5,300 -1,620 Descending Seattle Center
08:45PM 47.2289 -122.3133 360° North 247 284 4,000 -1,320 Descending Seattle Center
08:45PM 47.2475 -122.3156 355° North 237 273 4,000 -720 Level Seattle Center
08:46PM 47.2903 -122.3128 North 226 260 3,300 -1,020 Descending Seattle Center
08:46PM 47.3067 -122.3122 North 209 241 3,000 -900 Descending Seattle Center
08:47PM 47.3353 -122.3128 359° North 165 190 2,400 -780 Descending Seattle Center
08:48PM 47.3708 -122.3119 North 129 148 1,700 -780 Descending Seattle Center
08:48PM 47.3844 -122.3122 359° North 118 136 1,400 -720 Descending Seattle Center
08:49PM 47.4056 -122.3122 360° North 127 146 1,000 -720 Descending Seattle Center
08:49PM 47.4200 -122.3122 360° North 130 150 700 -720 Descending Seattle Center
08:50PM 47.4419 -122.3117 North 136 157 300 -600 Descending Seattle Center
08:52PM 47.4499 -122.3118 359° North  Level Estimated